createdAt,value
2022-08-20T00:01:16.950Z,3.50
2022-08-20T00:03:50.163Z,4.70
2022-08-20T00:06:23.798Z,3.97
2022-08-20T00:08:51.903Z,5.30
2022-08-20T00:11:25.612Z,2.73
2022-08-20T00:13:59.276Z,3.67
2022-08-20T00:16:32.849Z,2.70
2022-08-20T00:19:02.310Z,5.30
2022-08-20T00:21:29.532Z,3.57
2022-08-20T00:23:59.246Z,7.07
2022-08-20T00:26:26.715Z,4.10
2022-08-20T00:28:54.429Z,2.40
2022-08-20T00:31:24.383Z,3.40
2022-08-20T00:33:52.803Z,3.63
2022-08-20T00:36:20.783Z,3.40
2022-08-20T00:38:48.416Z,3.50
2022-08-20T00:41:22.590Z,4.27
2022-08-20T00:44:14.067Z,4.50
2022-08-20T00:46:43.591Z,15.10
2022-08-20T00:49:29.494Z,4.27
2022-08-20T00:52:09.612Z,5.13
2022-08-20T00:54:56.913Z,3.40
2022-08-20T00:58:00.439Z,2.93
2022-08-20T01:00:38.112Z,3.00
2022-08-20T01:03:09.989Z,3.10
2022-08-20T01:05:47.081Z,2.53
2022-08-20T01:08:17.170Z,3.80
2022-08-20T01:10:49.808Z,3.47
2022-08-20T01:13:24.336Z,2.20
2022-08-20T01:15:56.197Z,3.33
2022-08-20T01:18:28.651Z,2.27
2022-08-20T01:21:04.310Z,3.57
2022-08-20T01:23:53.277Z,2.40
2022-08-20T01:26:27.428Z,7.07
2022-08-20T01:29:04.596Z,4.33
2022-08-20T01:31:38.916Z,4.40
2022-08-20T01:34:12.559Z,4.40
2022-08-20T01:36:46.505Z,3.43
2022-08-20T01:39:22.056Z,3.97
2022-08-20T01:41:51.875Z,5.37
2022-08-20T01:44:21.248Z,3.63
2022-08-20T01:46:51.964Z,3.73
2022-08-20T01:49:53.628Z,4.10
2022-08-20T01:52:57.333Z,3.10
2022-08-20T01:55:26.917Z,3.10
2022-08-20T01:57:54.805Z,3.10
2022-08-20T02:00:24.057Z,2.20
2022-08-20T02:02:52.007Z,7.13
2022-08-20T02:05:20.802Z,5.60
2022-08-20T02:07:49.034Z,4.23
2022-08-20T02:10:18.235Z,5.83
2022-08-20T02:12:45.491Z,3.73
2022-08-20T02:15:14.169Z,5.43
2022-08-20T02:17:43.244Z,3.67
2022-08-20T02:20:17.421Z,7.80
2022-08-20T02:22:53.400Z,4.10
2022-08-20T02:25:28.012Z,3.90
2022-08-20T02:28:00.901Z,4.83
2022-08-20T02:30:34.185Z,2.90
2022-08-20T02:33:05.513Z,4.23
2022-08-20T02:35:35.655Z,3.47
2022-08-20T02:38:03.418Z,2.77
2022-08-20T02:40:31.642Z,3.20
2022-08-20T02:43:00.972Z,2.73
2022-08-20T02:45:30.407Z,6.73
2022-08-20T02:47:59.146Z,3.43
2022-08-20T02:50:28.017Z,5.20
2022-08-20T02:52:55.255Z,7.90
2022-08-20T02:55:27.412Z,4.73
2022-08-20T02:58:00.634Z,5.63
2022-08-20T03:00:38.081Z,3.40
2022-08-20T03:03:10.486Z,3.10
2022-08-20T03:05:41.765Z,4.90
2022-08-20T03:08:12.434Z,5.53
2022-08-20T03:10:43.043Z,4.83
2022-08-20T03:13:13.762Z,4.33
2022-08-20T03:15:49.162Z,4.13
2022-08-20T03:18:20.426Z,4.30
2022-08-20T03:20:52.080Z,5.83
2022-08-20T03:23:21.883Z,5.07
2022-08-20T03:25:50.028Z,4.40
2022-08-20T03:28:19.011Z,4.70
2022-08-20T03:30:46.890Z,2.60
2022-08-20T03:33:14.327Z,6.80
2022-08-20T03:35:41.432Z,3.80
2022-08-20T03:38:12.533Z,5.63
2022-08-20T03:40:41.746Z,3.23
2022-08-20T03:43:10.324Z,5.23
2022-08-20T03:45:41.031Z,2.90
2022-08-20T03:48:10.941Z,5.53
2022-08-20T03:50:42.555Z,5.13
2022-08-20T03:53:13.122Z,5.23
2022-08-20T03:55:46.410Z,3.10
2022-08-20T03:58:32.813Z,3.13
2022-08-20T04:01:06.588Z,3.27
2022-08-20T04:03:35.493Z,6.13
2022-08-20T04:06:03.027Z,4.40
2022-08-20T04:08:31.131Z,3.37
2022-08-20T04:10:59.815Z,3.50
2022-08-20T04:13:29.945Z,6.93
2022-08-20T04:16:01.142Z,4.50
2022-08-20T04:18:28.463Z,3.17
2022-08-20T04:20:55.939Z,7.93
2022-08-20T04:23:23.474Z,5.87
2022-08-20T04:25:50.825Z,5.03
2022-08-20T04:28:27.177Z,5.60
2022-08-20T04:30:58.148Z,3.30
2022-08-20T04:33:34.171Z,4.10
2022-08-20T04:36:06.321Z,4.20
2022-08-20T04:38:50.630Z,4.57
2022-08-20T04:41:23.717Z,3.57
2022-08-20T04:43:54.653Z,4.67
2022-08-20T04:46:25.943Z,4.23
2022-08-20T04:48:53.797Z,5.23
2022-08-20T04:51:23.236Z,4.97
2022-08-20T04:53:53.707Z,4.20
2022-08-20T04:56:25.992Z,5.47
2022-08-20T04:58:57.448Z,5.77
2022-08-20T05:01:26.338Z,6.00
2022-08-20T05:03:55.322Z,5.40
2022-08-20T05:06:28.663Z,4.63
2022-08-20T05:08:58.769Z,4.47
2022-08-20T05:11:36.124Z,5.60
2022-08-20T05:14:09.694Z,5.20
2022-08-20T05:16:40.539Z,7.10
2022-08-20T05:19:13.160Z,5.73
2022-08-20T05:21:41.537Z,3.77
2022-08-20T05:24:10.414Z,5.93
2022-08-20T05:26:37.609Z,7.30
2022-08-20T05:29:06.881Z,9.07
2022-08-20T05:31:35.695Z,5.70
2022-08-20T05:34:12.034Z,6.50
2022-08-20T05:36:48.138Z,8.37
2022-08-20T05:39:18.969Z,6.47
2022-08-20T05:41:46.516Z,6.60
2022-08-20T05:44:15.580Z,4.30
2022-08-20T05:46:45.637Z,4.07
2022-08-20T05:49:18.116Z,7.67
2022-08-20T05:51:45.840Z,8.03
2022-08-20T05:54:15.742Z,5.97
2022-08-20T05:56:43.417Z,5.30
2022-08-20T05:59:12.675Z,7.03
2022-08-20T06:01:43.027Z,5.37
2022-08-20T06:04:32.138Z,8.70
2022-08-20T06:07:07.226Z,10.10
2022-08-20T06:09:36.265Z,9.00
2022-08-20T06:12:08.965Z,6.50
2022-08-20T06:14:36.440Z,7.53
2022-08-20T06:17:19.181Z,8.47
2022-08-20T06:19:51.353Z,7.03
2022-08-20T06:22:25.696Z,6.33
2022-08-20T06:24:54.380Z,6.93
2022-08-20T06:27:22.596Z,4.43
2022-08-20T06:29:51.209Z,9.00
2022-08-20T06:32:21.194Z,5.90
2022-08-20T06:35:03.609Z,7.90
2022-08-20T06:37:34.124Z,4.80
2022-08-20T06:40:24.759Z,4.67
2022-08-20T06:43:03.041Z,5.00
2022-08-20T06:45:33.308Z,6.83
2022-08-20T06:48:07.335Z,6.47
2022-08-20T06:50:45.865Z,5.50
2022-08-20T06:53:19.527Z,6.03
2022-08-20T06:55:53.492Z,6.87
2022-08-20T06:58:36.767Z,5.93
2022-08-20T07:01:09.607Z,15.73
2022-08-20T07:03:55.668Z,5.60
2022-08-20T07:06:29.143Z,4.90
2022-08-20T07:08:57.325Z,5.37
2022-08-20T07:16:48.257Z,7.77
2022-08-20T07:19:16.697Z,5.97
2022-08-20T07:21:44.010Z,10.90
2022-08-20T07:24:13.054Z,10.13
2022-08-20T07:26:40.270Z,7.97
2022-08-20T07:29:07.658Z,12.07
2022-08-20T07:31:54.433Z,8.23
2022-08-20T07:34:22.129Z,11.13
2022-08-20T07:36:50.582Z,7.67
2022-08-20T07:39:24.196Z,19.60
2022-08-20T07:42:05.563Z,8.57
2022-08-20T07:47:00.448Z,14.33
2022-08-20T07:49:41.929Z,11.37
2022-08-20T07:52:14.941Z,16.23
2022-08-20T07:57:16.980Z,12.87
2022-08-20T08:02:34.568Z,11.90
2022-08-20T08:05:05.223Z,16.63
2022-08-20T08:15:34.560Z,12.80
2022-08-20T08:18:27.713Z,11.13
2022-08-20T08:20:58.287Z,11.20
2022-08-20T08:25:55.448Z,19.27
2022-08-20T08:28:27.036Z,14.60
2022-08-20T08:30:54.174Z,14.33
2022-08-20T08:33:33.624Z,20.80
2022-08-20T08:36:11.381Z,14.27
2022-08-20T08:38:42.445Z,15.33
2022-08-20T08:41:22.947Z,13.33
2022-08-20T08:43:54.455Z,12.03
2022-08-20T08:46:30.222Z,17.20
2022-08-20T08:49:01.712Z,12.03
2022-08-20T08:51:40.636Z,11.13
2022-08-20T08:54:17.489Z,14.13
2022-08-20T08:56:49.778Z,14.50
2022-08-20T08:59:20.381Z,12.90
2022-08-20T09:01:55.199Z,19.60
2022-08-20T09:04:32.677Z,19.90
2022-08-20T09:07:03.567Z,17.70
2022-08-20T09:09:37.457Z,21.30
2022-08-20T09:12:15.562Z,17.00
2022-08-20T09:14:42.692Z,20.70
2022-08-20T09:17:09.908Z,21.07
2022-08-20T09:19:37.372Z,27.13
2022-08-20T09:22:17.381Z,16.30
2022-08-20T09:24:45.265Z,15.47
2022-08-20T09:27:13.218Z,28.50
2022-08-20T09:29:40.524Z,26.57
2022-08-20T09:32:24.302Z,26.40
2022-08-20T09:34:59.434Z,23.53
2022-08-20T09:37:35.042Z,19.73
2022-08-20T09:40:06.490Z,24.67
2022-08-20T09:42:41.013Z,26.23
2022-08-20T09:45:11.650Z,23.67
2022-08-20T09:47:43.845Z,22.77
2022-08-20T09:50:24.329Z,18.13
2022-08-20T09:52:55.323Z,20.27
2022-08-20T09:55:41.526Z,22.50
2022-08-20T09:58:31.379Z,23.40
2022-08-20T10:01:07.784Z,17.97
2022-08-20T10:03:48.912Z,22.17
2022-08-20T10:06:19.898Z,19.60
2022-08-20T10:08:48.894Z,17.77
2022-08-20T10:11:18.069Z,23.40
2022-08-20T10:13:46.418Z,19.43
2022-08-20T10:16:13.946Z,22.97
2022-08-20T10:18:41.188Z,20.47
2022-08-20T10:21:12.390Z,21.70
2022-08-20T10:23:40.742Z,22.20
2022-08-20T10:26:11.160Z,19.23
2022-08-20T10:28:40.268Z,15.90
2022-08-20T10:31:12.825Z,15.07
2022-08-20T10:33:42.810Z,13.67
2022-08-20T10:36:17.858Z,13.00
2022-08-20T10:38:46.560Z,17.33
2022-08-20T10:41:15.515Z,12.93
2022-08-20T10:43:45.744Z,17.10
2022-08-20T10:46:14.508Z,10.17
2022-08-20T10:48:50.635Z,8.90
2022-08-20T10:51:22.936Z,14.20
2022-08-20T10:54:03.175Z,11.83
2022-08-20T10:56:45.716Z,12.53
2022-08-20T10:59:13.920Z,12.27
2022-08-20T11:01:45.358Z,10.67
2022-08-20T11:04:21.596Z,13.10
2022-08-20T11:09:32.361Z,10.37
2022-08-20T11:12:07.188Z,7.87
2022-08-20T11:14:46.404Z,10.07
2022-08-20T11:17:24.262Z,9.70
2022-08-20T11:22:40.777Z,11.27
2022-08-20T11:25:15.272Z,12.03
2022-08-20T11:28:00.472Z,8.60
2022-08-20T11:30:41.856Z,9.60
2022-08-20T11:33:16.058Z,8.33
2022-08-20T11:35:49.268Z,10.20
2022-08-20T11:41:36.092Z,11.20
2022-08-20T11:49:23.468Z,7.80
2022-08-20T11:51:52.488Z,8.23
2022-08-20T11:56:48.808Z,9.80
2022-08-20T11:59:26.338Z,10.87
2022-08-20T12:02:02.944Z,7.87
2022-08-20T12:04:33.423Z,10.30
2022-08-20T12:07:18.268Z,7.77
2022-08-20T12:09:50.895Z,8.50
2022-08-20T12:12:28.108Z,7.90
2022-08-20T12:14:56.798Z,6.97
2022-08-20T12:17:38.623Z,7.10
2022-08-20T12:23:08.463Z,4.17
2022-08-20T12:25:35.701Z,3.67
2022-08-20T12:28:05.162Z,3.23
2022-08-20T12:30:33.852Z,8.17
2022-08-20T12:33:01.616Z,4.00
2022-08-20T12:35:29.655Z,4.20
2022-08-20T12:38:03.685Z,4.17
2022-08-20T12:40:32.684Z,5.10
2022-08-20T12:43:03.262Z,3.53
2022-08-20T12:45:31.935Z,2.63
2022-08-20T12:48:13.130Z,4.57
2022-08-20T12:50:43.391Z,2.03
2022-08-20T12:53:10.646Z,2.60
2022-08-20T12:55:38.383Z,2.97
2022-08-20T12:58:09.044Z,2.53
2022-08-20T13:00:50.470Z,2.83
2022-08-20T13:03:20.550Z,1.90
2022-08-20T13:05:49.039Z,11.10
2022-08-20T13:08:18.009Z,2.17
2022-08-20T13:10:46.747Z,1.77
2022-08-20T13:13:21.277Z,2.80
2022-08-20T13:15:51.385Z,1.53
2022-08-20T13:18:20.572Z,1.93
2022-08-20T13:20:48.310Z,1.47
2022-08-20T13:23:19.431Z,4.00
2022-08-20T13:25:46.662Z,2.27
2022-08-20T13:28:13.927Z,2.57
2022-08-20T13:30:41.678Z,7.17
2022-08-20T13:33:08.911Z,4.50
2022-08-20T13:35:36.217Z,3.63
2022-08-20T13:38:03.541Z,3.80
2022-08-20T13:40:30.831Z,1.50
2022-08-20T13:42:58.437Z,1.90
2022-08-20T13:45:26.158Z,1.80
2022-08-20T13:47:55.820Z,2.87
2022-08-20T13:50:25.799Z,3.20
2022-08-20T13:52:53.221Z,2.10
2022-08-20T13:55:24.067Z,2.40
2022-08-20T13:57:53.426Z,1.97
2022-08-20T14:00:32.367Z,2.73
2022-08-20T14:03:06.357Z,1.47
2022-08-20T14:05:36.454Z,1.73
2022-08-20T14:10:58.375Z,2.50
2022-08-20T14:13:27.432Z,1.70
2022-08-20T14:16:01.657Z,1.77
2022-08-20T14:18:42.687Z,2.20
2022-08-20T14:21:15.844Z,1.93
2022-08-20T14:23:44.396Z,1.70
2022-08-20T14:26:16.792Z,1.93
2022-08-20T14:28:55.663Z,2.07
2022-08-20T14:31:22.866Z,2.13
2022-08-20T14:33:56.079Z,2.57
2022-08-20T14:36:23.710Z,1.60
2022-08-20T14:38:50.975Z,1.90
2022-08-20T14:41:18.131Z,2.37
2022-08-20T14:43:45.179Z,1.80
2022-08-20T14:46:12.320Z,3.13
2022-08-20T14:48:39.497Z,5.17
2022-08-20T14:51:09.884Z,2.70
2022-08-20T14:53:40.481Z,1.90
2022-08-20T14:56:08.007Z,2.03
2022-08-20T14:58:35.348Z,2.87
2022-08-20T15:01:02.612Z,2.47
2022-08-20T15:03:30.762Z,3.60
2022-08-20T15:05:59.302Z,2.90
2022-08-20T15:08:28.803Z,3.23
2022-08-20T15:10:56.193Z,1.50
2022-08-20T15:13:23.345Z,2.93
2022-08-20T15:15:50.536Z,2.30
2022-08-20T15:18:18.725Z,1.80
2022-08-20T15:20:45.855Z,1.80
2022-08-20T15:23:12.946Z,1.60
2022-08-20T15:25:40.072Z,1.77
2022-08-20T15:28:10.860Z,1.90
2022-08-20T15:30:40.952Z,1.73
2022-08-20T15:33:10.525Z,1.70
2022-08-20T15:35:38.291Z,2.23
2022-08-20T15:38:05.506Z,2.03
2022-08-20T15:40:33.864Z,3.00
2022-08-20T15:43:03.717Z,1.33
2022-08-20T15:45:32.374Z,1.73
2022-08-20T15:48:20.550Z,1.17
2022-08-20T15:51:08.759Z,1.70
2022-08-20T15:54:17.452Z,1.43
2022-08-20T15:57:21.241Z,2.20
2022-08-20T16:00:20.361Z,1.70
2022-08-20T16:03:10.851Z,2.53
2022-08-20T16:05:56.753Z,3.27
2022-08-20T16:08:29.968Z,1.77
2022-08-20T16:11:32.469Z,2.63
2022-08-20T16:14:34.924Z,2.80
2022-08-20T16:17:09.561Z,1.73
2022-08-20T16:19:59.829Z,4.70
2022-08-20T16:22:31.470Z,2.33
2022-08-20T16:24:58.955Z,3.67
2022-08-20T16:27:53.100Z,2.33
2022-08-20T16:30:49.477Z,2.00
2022-08-20T16:33:41.750Z,2.53
2022-08-20T16:36:33.481Z,1.30
2022-08-20T16:39:17.408Z,1.60
2022-08-20T16:41:49.548Z,1.70
2022-08-20T16:44:35.272Z,2.20
2022-08-20T16:47:17.196Z,1.40
2022-08-20T16:50:04.653Z,1.93
2022-08-20T16:52:32.271Z,5.03
2022-08-20T16:54:59.617Z,2.90
2022-08-20T16:57:29.927Z,4.37
2022-08-20T17:00:30.494Z,4.43
2022-08-20T17:03:08.028Z,1.90
2022-08-20T17:05:38.154Z,3.30
2022-08-20T17:08:15.367Z,3.20
2022-08-20T17:11:12.561Z,1.57
2022-08-20T17:13:44.949Z,1.80
2022-08-20T17:16:15.123Z,1.93
2022-08-20T17:18:50.947Z,2.40
2022-08-20T17:21:35.596Z,2.33
2022-08-20T17:24:21.397Z,1.90
2022-08-20T17:27:03.452Z,3.60
2022-08-20T17:29:38.468Z,1.93
2022-08-20T17:32:28.160Z,2.90
2022-08-20T17:35:00.521Z,2.57
2022-08-20T17:37:34.364Z,1.90
2022-08-20T17:40:25.232Z,2.80
2022-08-20T17:43:29.629Z,2.30
2022-08-20T17:46:03.044Z,2.47
2022-08-20T17:48:42.996Z,2.30
2022-08-20T17:51:38.780Z,3.03
2022-08-20T17:54:32.930Z,3.80
2022-08-20T17:57:07.213Z,1.93
2022-08-20T18:00:00.059Z,4.03
2022-08-20T18:02:29.985Z,1.97
2022-08-20T18:04:57.348Z,2.97
2022-08-20T18:07:53.544Z,12.23
2022-08-20T18:10:27.276Z,3.20
2022-08-20T18:13:09.427Z,2.13
2022-08-20T18:15:49.083Z,1.90
2022-08-20T18:18:56.870Z,3.57
2022-08-20T18:21:47.228Z,2.00
2022-08-20T18:24:26.417Z,1.47
2022-08-20T18:27:09.160Z,3.23
2022-08-20T18:29:43.565Z,2.20
2022-08-20T18:32:51.130Z,1.70
2022-08-20T18:35:33.192Z,1.87
2022-08-20T18:38:22.345Z,3.73
2022-08-20T18:40:54.891Z,1.87
2022-08-20T18:43:31.499Z,2.23
2022-08-20T18:46:23.846Z,2.13
2022-08-20T18:48:56.278Z,2.20
2022-08-20T18:51:36.280Z,2.77
2022-08-20T18:54:04.664Z,3.10
2022-08-20T18:56:42.827Z,1.90
2022-08-20T18:59:19.980Z,1.83
2022-08-20T19:01:49.323Z,3.90
2022-08-20T19:04:33.806Z,3.63
2022-08-20T19:07:05.813Z,2.70
2022-08-20T19:10:07.830Z,3.43
2022-08-20T19:13:32.888Z,3.30
2022-08-20T19:16:09.681Z,2.07
2022-08-20T19:18:36.759Z,1.93
2022-08-20T19:21:04.917Z,3.37
2022-08-20T19:23:54.149Z,2.47
2022-08-20T19:26:25.629Z,3.77
2022-08-20T19:29:07.270Z,2.87
2022-08-20T19:31:36.411Z,3.07
2022-08-20T19:34:21.563Z,2.90
2022-08-20T19:37:39.861Z,3.63
2022-08-20T19:40:31.910Z,2.80
2022-08-20T19:43:03.145Z,3.53
2022-08-20T19:45:38.721Z,2.57
2022-08-20T19:48:53.972Z,4.60
2022-08-20T19:51:53.130Z,6.30
2022-08-20T19:54:24.242Z,4.90
2022-08-20T19:56:56.731Z,3.90
2022-08-20T19:59:24.335Z,5.20
2022-08-20T20:02:04.860Z,5.50
2022-08-20T20:04:54.891Z,3.70
2022-08-20T20:07:48.617Z,6.70
2022-08-20T20:10:33.160Z,5.60
2022-08-20T20:13:16.997Z,5.33
2022-08-20T20:15:44.892Z,4.87
2022-08-20T20:18:13.797Z,3.73
2022-08-20T20:20:57.173Z,4.70
2022-08-20T20:23:38.724Z,3.50
2022-08-20T20:26:19.971Z,4.23
2022-08-20T20:28:50.966Z,2.57
2022-08-20T20:31:25.713Z,5.73
2022-08-20T20:33:58.367Z,6.90
2022-08-20T20:36:45.593Z,5.43
2022-08-20T20:39:31.207Z,9.50
2022-08-20T20:42:01.905Z,6.73
2022-08-20T20:44:43.276Z,9.60
2022-08-20T20:47:26.734Z,5.90
2022-08-20T20:50:06.162Z,3.90
2022-08-20T20:52:49.595Z,3.30
2022-08-20T20:55:31.772Z,3.83
2022-08-20T20:58:02.751Z,3.00
2022-08-20T21:00:33.385Z,4.10
2022-08-20T21:03:02.653Z,2.93
2022-08-20T21:05:32.661Z,3.77
2022-08-20T21:08:06.072Z,4.20
2022-08-20T21:10:37.695Z,5.80
2022-08-20T21:13:08.197Z,2.83
2022-08-20T21:15:37.833Z,3.30
2022-08-20T21:18:09.119Z,3.37
2022-08-20T21:20:37.315Z,4.37
2022-08-20T21:23:05.318Z,3.43
2022-08-20T21:25:35.172Z,2.80
2022-08-20T21:28:03.500Z,3.60
2022-08-20T21:30:31.604Z,10.53
2022-08-20T21:32:59.221Z,3.73
2022-08-20T21:35:27.033Z,4.80
2022-08-20T21:37:54.401Z,3.10
2022-08-20T21:40:22.058Z,8.93
2022-08-20T21:42:50.106Z,6.00
2022-08-20T21:45:19.654Z,4.83
2022-08-20T21:47:48.856Z,3.83
2022-08-20T21:50:19.234Z,3.43
2022-08-20T21:52:55.498Z,4.90
2022-08-20T21:55:35.037Z,4.47
2022-08-20T21:58:05.540Z,3.57
2022-08-20T22:00:53.442Z,3.37
2022-08-20T22:03:24.916Z,4.63
2022-08-20T22:05:52.903Z,3.93
2022-08-20T22:08:21.308Z,4.23
2022-08-20T22:10:57.184Z,3.70
2022-08-20T22:13:31.377Z,3.90
2022-08-20T22:16:06.340Z,4.37
2022-08-20T22:18:34.780Z,3.60
2022-08-20T22:21:03.071Z,4.50
2022-08-20T22:23:30.411Z,4.70
2022-08-20T22:25:57.566Z,3.07
2022-08-20T22:28:25.366Z,5.33
2022-08-20T22:30:53.081Z,7.53
2022-08-20T22:33:24.470Z,6.23
2022-08-20T22:35:55.732Z,2.73
2022-08-20T22:38:23.576Z,3.30
2022-08-20T22:40:51.607Z,7.40
2022-08-20T22:43:18.874Z,3.77
2022-08-20T22:45:49.944Z,5.27
2022-08-20T22:48:20.251Z,4.53
2022-08-20T22:50:50.280Z,5.27
2022-08-20T22:53:20.802Z,5.97
2022-08-20T22:55:48.976Z,5.50
2022-08-20T22:58:17.689Z,4.43
2022-08-20T23:00:47.449Z,5.10
2022-08-20T23:03:19.872Z,10.80
2022-08-20T23:06:09.229Z,3.27
2022-08-20T23:08:38.224Z,3.97
2022-08-20T23:11:06.254Z,4.03
2022-08-20T23:13:33.617Z,4.37
2022-08-20T23:16:01.756Z,3.50
2022-08-20T23:18:29.061Z,3.30
2022-08-20T23:20:59.178Z,2.83
2022-08-20T23:23:27.685Z,3.73
2022-08-20T23:25:55.613Z,2.90
2022-08-20T23:28:25.504Z,5.40
2022-08-20T23:30:52.966Z,2.80
2022-08-20T23:33:20.164Z,2.47
2022-08-20T23:35:48.048Z,5.23
2022-08-20T23:38:15.600Z,2.70
2022-08-20T23:40:43.531Z,3.40
2022-08-20T23:43:10.745Z,3.57
2022-08-20T23:45:40.337Z,3.83
2022-08-20T23:48:08.817Z,3.43
2022-08-20T23:50:37.215Z,4.97
2022-08-20T23:53:05.440Z,3.60
2022-08-20T23:55:32.941Z,3.70
2022-08-20T23:58:00.454Z,3.70
